createdAt,value
2022-11-05T00:00:47.855Z,0.00
2022-11-05T00:01:47.847Z,0.00
2022-11-05T00:02:47.811Z,0.00
2022-11-05T00:03:47.908Z,0.00
2022-11-05T00:04:47.784Z,0.00
2022-11-05T00:05:47.768Z,0.00
2022-11-05T00:06:47.900Z,0.00
2022-11-05T00:07:47.783Z,0.00
2022-11-05T00:08:47.876Z,0.00
2022-11-05T00:09:47.722Z,0.00
2022-11-05T00:10:47.756Z,0.00
2022-11-05T00:11:47.796Z,0.00
2022-11-05T00:12:47.777Z,0.00
2022-11-05T00:13:47.725Z,0.00
2022-11-05T00:14:47.727Z,0.00
2022-11-05T00:15:47.651Z,0.00
2022-11-05T00:16:47.641Z,0.00
2022-11-05T00:17:47.906Z,0.00
2022-11-05T00:18:47.621Z,0.00
2022-11-05T00:19:47.631Z,0.00
2022-11-05T00:20:47.596Z,0.00
2022-11-05T00:21:47.583Z,0.00
2022-11-05T00:22:47.660Z,0.00
2022-11-05T00:23:47.562Z,0.00
2022-11-05T00:24:47.692Z,0.00
2022-11-05T00:25:47.599Z,0.00
2022-11-05T00:26:47.559Z,0.00
2022-11-05T00:27:47.513Z,0.00
2022-11-05T00:28:47.503Z,0.00
2022-11-05T00:29:47.491Z,0.00
2022-11-05T00:30:47.481Z,0.00
2022-11-05T00:31:47.475Z,0.00
2022-11-05T00:32:47.557Z,0.00
2022-11-05T00:33:47.443Z,0.00
2022-11-05T00:34:47.446Z,0.00
2022-11-05T00:35:47.427Z,0.00
2022-11-05T00:36:47.411Z,0.00
2022-11-05T00:37:50.284Z,0.00
2022-11-05T00:38:47.425Z,0.00
2022-11-05T00:39:47.376Z,0.00
2022-11-05T00:40:47.452Z,0.00
2022-11-05T00:41:47.358Z,0.00
2022-11-05T00:42:47.371Z,0.00
2022-11-05T00:43:47.339Z,0.00
2022-11-05T00:44:47.321Z,0.00
2022-11-05T00:45:47.331Z,0.00
2022-11-05T00:46:47.302Z,0.00
2022-11-05T00:47:47.291Z,0.00
2022-11-05T00:48:47.277Z,0.00
2022-11-05T00:49:47.264Z,0.00
2022-11-05T00:50:47.279Z,0.00
2022-11-05T00:51:47.242Z,0.00
2022-11-05T00:52:47.232Z,0.00
2022-11-05T00:53:47.255Z,0.00
2022-11-05T00:54:47.206Z,0.00
2022-11-05T00:55:47.296Z,0.00
2022-11-05T00:56:47.297Z,0.00
2022-11-05T00:57:47.171Z,0.00
2022-11-05T00:58:47.163Z,0.00
2022-11-05T00:59:47.175Z,0.00
2022-11-05T01:00:47.152Z,0.00
2022-11-05T01:01:47.279Z,0.00
2022-11-05T01:02:47.205Z,0.00
2022-11-05T01:03:51.498Z,0.00
2022-11-05T01:04:47.093Z,0.00
2022-11-05T01:05:47.083Z,0.00
2022-11-05T01:06:47.069Z,0.00
2022-11-05T01:07:47.063Z,0.00
2022-11-05T01:08:47.052Z,0.00
2022-11-05T01:09:47.072Z,0.00
2022-11-05T01:10:47.027Z,0.00
2022-11-05T01:11:47.013Z,0.00
2022-11-05T01:12:47.032Z,0.00
2022-11-05T01:13:46.990Z,0.00
2022-11-05T01:14:47.004Z,0.00
2022-11-05T01:15:46.969Z,0.00
2022-11-05T01:16:46.954Z,0.00
2022-11-05T01:17:46.948Z,0.00
2022-11-05T01:18:46.956Z,0.00
2022-11-05T01:19:46.921Z,0.00
2022-11-05T01:20:46.908Z,0.00
2022-11-05T01:21:46.900Z,0.00
2022-11-05T01:22:46.884Z,0.00
2022-11-05T01:23:46.898Z,0.00
2022-11-05T01:24:46.891Z,0.00
2022-11-05T01:25:46.860Z,0.00
2022-11-05T01:26:46.842Z,0.00
2022-11-05T01:27:46.835Z,0.00
2022-11-05T01:28:46.929Z,0.00
2022-11-05T01:29:46.833Z,0.00
2022-11-05T01:30:46.797Z,0.00
2022-11-05T01:31:46.815Z,0.00
2022-11-05T01:32:46.777Z,0.00
2022-11-05T01:33:46.763Z,0.00
2022-11-05T01:34:46.772Z,0.00
2022-11-05T01:35:46.738Z,0.00
2022-11-05T01:36:46.727Z,0.00
2022-11-05T01:37:46.742Z,0.00
2022-11-05T01:38:46.732Z,0.00
2022-11-05T01:39:46.719Z,0.00
2022-11-05T01:40:46.704Z,0.00
2022-11-05T01:41:46.673Z,0.00
2022-11-05T01:42:46.659Z,0.00
2022-11-05T01:43:46.653Z,0.00
2022-11-05T01:44:46.729Z,0.00
2022-11-05T01:45:46.630Z,0.00
2022-11-05T01:46:46.612Z,0.00
2022-11-05T01:47:46.604Z,0.00
2022-11-05T01:48:46.589Z,0.00
2022-11-05T01:49:46.606Z,0.00
2022-11-05T01:50:46.577Z,0.00
2022-11-05T01:51:46.558Z,0.00
2022-11-05T01:52:46.548Z,0.00
2022-11-05T01:53:46.557Z,0.00
2022-11-05T01:54:46.526Z,0.00
2022-11-05T01:55:46.536Z,0.00
2022-11-05T01:56:46.499Z,0.00
2022-11-05T01:57:46.487Z,0.00
2022-11-05T01:58:46.491Z,0.00
2022-11-05T01:59:46.490Z,0.00
2022-11-05T02:00:46.573Z,0.00
2022-11-05T02:01:46.647Z,0.00
2022-11-05T02:02:46.609Z,0.00
2022-11-05T02:03:46.451Z,0.00
2022-11-05T02:04:46.414Z,0.00
2022-11-05T02:05:46.402Z,0.00
2022-11-05T02:06:46.514Z,0.00
2022-11-05T02:07:46.408Z,0.00
2022-11-05T02:08:46.401Z,0.00
2022-11-05T02:09:46.399Z,0.00
2022-11-05T02:10:46.368Z,0.00
2022-11-05T02:11:46.336Z,0.00
2022-11-05T02:12:46.327Z,0.00
2022-11-05T02:13:46.341Z,0.00
2022-11-05T02:14:46.374Z,0.00
2022-11-05T02:15:46.292Z,0.00
2022-11-05T02:16:46.299Z,0.00
2022-11-05T02:17:46.268Z,0.00
2022-11-05T02:18:46.260Z,0.00
2022-11-05T02:19:46.280Z,0.00
2022-11-05T02:20:51.845Z,0.00
2022-11-05T02:21:47.259Z,0.00
2022-11-05T02:22:46.373Z,0.00
2022-11-05T02:23:46.215Z,0.00
2022-11-05T02:24:46.205Z,0.00
2022-11-05T02:25:46.184Z,0.00
2022-11-05T02:26:46.179Z,0.00
2022-11-05T02:27:46.164Z,0.00
2022-11-05T02:28:46.177Z,0.00
2022-11-05T02:29:46.186Z,0.00
2022-11-05T02:30:46.139Z,0.00
2022-11-05T02:31:46.157Z,0.00
2022-11-05T02:32:46.226Z,0.00
2022-11-05T02:33:46.135Z,0.00
2022-11-05T02:34:46.096Z,0.00
2022-11-05T02:35:46.077Z,0.00
2022-11-05T02:36:46.089Z,0.00
2022-11-05T02:37:46.060Z,0.00
2022-11-05T02:38:46.065Z,0.00
2022-11-05T02:39:46.054Z,0.00
2022-11-05T02:40:46.030Z,0.00
2022-11-05T02:41:46.033Z,0.00
2022-11-05T02:42:46.003Z,0.00
2022-11-05T02:43:45.987Z,0.00
2022-11-05T02:44:45.985Z,0.00
2022-11-05T02:45:45.989Z,0.00
2022-11-05T02:46:46.018Z,0.00
2022-11-05T02:47:45.978Z,0.00
2022-11-05T02:48:46.040Z,0.00
2022-11-05T02:49:45.924Z,0.00
2022-11-05T02:50:45.956Z,0.00
2022-11-05T02:51:45.897Z,0.00
2022-11-05T02:52:45.924Z,0.00
2022-11-05T02:53:45.879Z,0.00
2022-11-05T02:54:45.870Z,0.00
2022-11-05T02:55:45.855Z,0.00
2022-11-05T02:56:45.845Z,0.00
2022-11-05T02:57:45.853Z,0.00
2022-11-05T02:58:45.827Z,0.00
2022-11-05T02:59:45.838Z,0.00
2022-11-05T03:00:45.824Z,0.00
2022-11-05T03:01:45.918Z,0.00
2022-11-05T03:02:45.988Z,0.00
2022-11-05T03:03:45.766Z,0.00
2022-11-05T03:04:45.800Z,0.00
2022-11-05T03:05:45.779Z,0.00
2022-11-05T03:06:45.740Z,0.00
2022-11-05T03:07:45.724Z,0.00
2022-11-05T03:08:45.721Z,0.00
2022-11-05T03:09:45.708Z,0.00
2022-11-05T03:10:45.732Z,0.00
2022-11-05T03:11:45.677Z,0.00
2022-11-05T03:12:45.670Z,0.00
2022-11-05T03:13:45.681Z,0.00
2022-11-05T03:14:45.648Z,0.00
2022-11-05T03:15:45.646Z,0.00
2022-11-05T03:16:45.628Z,0.00
2022-11-05T03:17:45.613Z,0.00
2022-11-05T03:18:45.623Z,0.00
2022-11-05T03:19:45.592Z,0.00
2022-11-05T03:20:45.637Z,0.00
2022-11-05T03:21:45.587Z,0.00
2022-11-05T03:22:45.631Z,0.00
2022-11-05T03:23:45.547Z,0.00
2022-11-05T03:24:45.549Z,0.00
2022-11-05T03:25:45.523Z,0.00
2022-11-05T03:26:45.541Z,0.00
2022-11-05T03:27:45.524Z,0.00
2022-11-05T03:28:45.494Z,0.00
2022-11-05T03:29:45.475Z,0.00
2022-11-05T03:30:45.487Z,0.00
2022-11-05T03:31:45.559Z,0.00
2022-11-05T03:32:45.455Z,0.00
2022-11-05T03:33:45.432Z,0.00
2022-11-05T03:34:45.443Z,0.00
2022-11-05T03:35:45.405Z,0.00
2022-11-05T03:36:45.419Z,0.00
2022-11-05T03:37:45.461Z,0.00
2022-11-05T03:38:45.378Z,0.00
2022-11-05T03:39:45.367Z,0.00
2022-11-05T03:40:45.364Z,0.00
2022-11-05T03:41:45.340Z,0.00
2022-11-05T03:42:45.362Z,0.00
2022-11-05T03:43:45.345Z,0.00
2022-11-05T03:44:45.334Z,0.00
2022-11-05T03:45:45.366Z,0.00
2022-11-05T03:46:45.351Z,0.00
2022-11-05T03:47:45.315Z,0.00
2022-11-05T03:48:45.367Z,0.00
2022-11-05T03:49:45.249Z,0.00
2022-11-05T03:50:45.264Z,0.00
2022-11-05T03:51:45.226Z,0.00
2022-11-05T03:52:45.264Z,0.00
2022-11-05T03:53:45.214Z,0.00
2022-11-05T03:54:45.205Z,0.00
2022-11-05T03:55:45.184Z,0.00
2022-11-05T03:56:45.173Z,0.00
2022-11-05T03:57:45.184Z,0.00
2022-11-05T03:58:45.173Z,0.00
2022-11-05T03:59:45.168Z,0.00
2022-11-05T04:00:45.128Z,0.00
2022-11-05T04:01:45.322Z,0.00
2022-11-05T04:02:45.355Z,0.00
2022-11-05T04:03:45.094Z,0.00
2022-11-05T04:04:45.090Z,0.00
2022-11-05T04:05:45.077Z,0.00
2022-11-05T04:06:45.070Z,0.00
2022-11-05T04:07:45.056Z,0.00
2022-11-05T04:08:45.113Z,0.00
2022-11-05T04:09:45.072Z,0.00
2022-11-05T04:10:45.117Z,0.00
2022-11-05T04:11:45.035Z,0.00
2022-11-05T04:12:44.994Z,0.00
2022-11-05T04:13:45.009Z,0.00
2022-11-05T04:14:44.968Z,0.00
2022-11-05T04:15:44.993Z,0.00
2022-11-05T04:16:44.951Z,0.00
2022-11-05T04:17:44.948Z,0.00
2022-11-05T04:18:44.925Z,0.00
2022-11-05T04:19:44.945Z,0.00
2022-11-05T04:20:44.902Z,0.00
2022-11-05T04:21:44.923Z,0.00
2022-11-05T04:22:44.914Z,0.00
2022-11-05T04:23:44.872Z,0.00
2022-11-05T04:24:44.871Z,0.00
2022-11-05T04:25:44.853Z,0.00
2022-11-05T04:26:44.858Z,0.00
2022-11-05T04:27:44.826Z,0.00
2022-11-05T04:28:44.839Z,0.00
2022-11-05T04:29:44.804Z,0.00
2022-11-05T04:30:44.792Z,0.00
2022-11-05T04:31:44.882Z,0.00
2022-11-05T04:32:44.791Z,0.00
2022-11-05T04:33:44.783Z,0.00
2022-11-05T04:34:44.773Z,0.00
2022-11-05T04:35:44.737Z,0.00
2022-11-05T04:36:44.726Z,0.00
2022-11-05T04:37:44.714Z,0.00
2022-11-05T04:38:44.730Z,0.00
2022-11-05T04:39:44.721Z,0.00
2022-11-05T04:40:44.697Z,0.00
2022-11-05T04:41:44.675Z,0.00
2022-11-05T04:42:44.708Z,0.00
2022-11-05T04:43:44.675Z,0.00
2022-11-05T04:44:44.646Z,0.00
2022-11-05T04:45:44.628Z,0.00
2022-11-05T04:46:44.634Z,0.00
2022-11-05T04:47:44.627Z,0.00
2022-11-05T04:48:44.618Z,0.00
2022-11-05T04:49:44.581Z,0.00
2022-11-05T04:50:44.572Z,0.00
2022-11-05T04:51:44.591Z,0.00
2022-11-05T04:52:44.572Z,0.00
2022-11-05T04:53:44.536Z,0.00
2022-11-05T04:54:44.524Z,0.00
2022-11-05T04:55:44.519Z,0.00
2022-11-05T04:56:44.634Z,0.00
2022-11-05T04:57:44.506Z,0.00
2022-11-05T04:58:44.479Z,0.00
2022-11-05T04:59:44.478Z,0.00
2022-11-05T05:00:44.641Z,0.00
2022-11-05T05:01:44.519Z,0.00
2022-11-05T05:02:44.431Z,0.00
2022-11-05T05:03:44.428Z,0.00
2022-11-05T05:04:44.413Z,0.00
2022-11-05T05:05:44.436Z,0.00
2022-11-05T05:06:44.394Z,0.00
2022-11-05T05:07:44.378Z,0.00
2022-11-05T05:08:44.367Z,0.00
2022-11-05T05:09:44.383Z,0.00
2022-11-05T05:10:44.346Z,0.00
2022-11-05T05:11:44.332Z,0.00
2022-11-05T05:12:44.373Z,0.00
2022-11-05T05:13:44.317Z,0.00
2022-11-05T05:14:44.325Z,0.00
2022-11-05T05:15:44.296Z,0.00
2022-11-05T05:16:44.277Z,0.00
2022-11-05T05:17:44.268Z,0.00
2022-11-05T05:18:46.355Z,0.00
2022-11-05T05:19:44.274Z,0.00
2022-11-05T05:20:44.234Z,0.00
2022-11-05T05:21:44.223Z,0.00
2022-11-05T05:22:44.211Z,0.00
2022-11-05T05:23:44.202Z,0.00
2022-11-05T05:24:47.406Z,0.00
2022-11-05T05:25:45.200Z,0.00
2022-11-05T05:26:44.171Z,0.00
2022-11-05T05:27:44.156Z,0.00
2022-11-05T05:28:44.198Z,0.00
2022-11-05T05:29:44.145Z,0.00
2022-11-05T05:30:44.148Z,0.00
2022-11-05T05:31:44.125Z,0.00
2022-11-05T05:32:44.099Z,0.00
2022-11-05T05:33:44.097Z,0.00
2022-11-05T05:34:44.102Z,0.00
2022-11-05T05:35:44.097Z,0.00
2022-11-05T05:36:44.055Z,0.00
2022-11-05T05:37:44.052Z,0.00
2022-11-05T05:38:44.034Z,0.00
2022-11-05T05:39:44.027Z,0.00
2022-11-05T05:40:44.021Z,0.00
2022-11-05T05:41:44.027Z,0.00
2022-11-05T05:42:43.989Z,0.00
2022-11-05T05:43:43.976Z,0.00
2022-11-05T05:44:43.986Z,0.00
2022-11-05T05:45:43.966Z,0.00
2022-11-05T05:46:43.965Z,0.00
2022-11-05T05:47:43.931Z,0.00
2022-11-05T05:48:43.920Z,0.00
2022-11-05T05:49:43.918Z,0.00
2022-11-05T05:50:43.897Z,0.00
2022-11-05T05:51:43.914Z,0.00
2022-11-05T05:52:43.879Z,0.00
2022-11-05T05:53:43.869Z,0.00
2022-11-05T05:54:43.854Z,0.00
2022-11-05T05:55:43.843Z,4.00
2022-11-05T05:56:43.857Z,4.00
2022-11-05T05:57:43.823Z,0.00
2022-11-05T05:58:43.809Z,4.00
2022-11-05T05:59:43.799Z,0.00
2022-11-05T06:00:43.825Z,4.00
2022-11-05T06:01:43.945Z,8.00
2022-11-05T06:02:43.960Z,4.00
2022-11-05T06:03:43.756Z,4.00
2022-11-05T06:04:43.748Z,4.00
2022-11-05T06:05:43.732Z,8.00
2022-11-05T06:06:43.925Z,12.00
2022-11-05T06:07:43.709Z,12.00
2022-11-05T06:08:43.702Z,16.00
2022-11-05T06:09:43.695Z,16.00
2022-11-05T06:10:43.737Z,16.00
2022-11-05T06:11:43.696Z,20.00
2022-11-05T06:12:43.662Z,24.00
2022-11-05T06:13:43.644Z,32.00
2022-11-05T06:14:43.664Z,36.00
2022-11-05T06:15:43.628Z,44.00
2022-11-05T06:16:43.636Z,52.00
2022-11-05T06:17:43.640Z,48.00
2022-11-05T06:18:43.590Z,52.00
2022-11-05T06:19:43.617Z,60.00
2022-11-05T06:20:43.573Z,60.00
2022-11-05T06:21:43.562Z,68.00
2022-11-05T06:22:43.547Z,80.00
2022-11-05T06:23:43.566Z,88.00
2022-11-05T06:24:43.553Z,100.00
2022-11-05T06:25:43.522Z,104.00
2022-11-05T06:26:43.507Z,104.00
2022-11-05T06:27:43.495Z,104.00
2022-11-05T06:28:43.508Z,108.00
2022-11-05T06:29:43.475Z,112.00
2022-11-05T06:30:43.462Z,124.00
2022-11-05T06:31:43.478Z,144.00
2022-11-05T06:32:43.455Z,160.00
2022-11-05T06:33:43.459Z,172.00
2022-11-05T06:34:43.425Z,176.00
2022-11-05T06:35:43.409Z,184.00
2022-11-05T06:36:43.393Z,188.00
2022-11-05T06:37:43.395Z,196.00
2022-11-05T06:38:43.415Z,200.00
2022-11-05T06:39:43.363Z,204.00
2022-11-05T06:40:43.356Z,216.00
2022-11-05T06:42:11.924Z,240.00
2022-11-05T06:42:44.327Z,272.00
2022-11-05T06:43:43.362Z,288.00
2022-11-05T06:44:43.312Z,296.00
2022-11-05T06:45:43.294Z,304.00
2022-11-05T06:46:48.147Z,296.00
2022-11-05T06:47:44.309Z,292.00
2022-11-05T06:48:43.279Z,300.00
2022-11-05T06:49:43.253Z,300.00
2022-11-05T06:50:43.245Z,292.00
2022-11-05T06:51:43.234Z,288.00
2022-11-05T06:52:43.244Z,288.00
2022-11-05T06:53:43.206Z,304.00
2022-11-05T06:54:43.191Z,324.00
2022-11-05T06:55:43.186Z,344.00
2022-11-05T06:56:43.167Z,336.00
2022-11-05T06:57:43.181Z,336.00
2022-11-05T06:58:43.149Z,344.00
2022-11-05T06:59:43.135Z,332.00
2022-11-05T07:00:43.234Z,296.00
2022-11-05T07:01:43.283Z,292.00
2022-11-05T07:02:43.104Z,296.00
2022-11-05T07:03:43.093Z,300.00
2022-11-05T07:04:43.189Z,292.00
2022-11-05T07:05:43.084Z,300.00
2022-11-05T07:06:43.052Z,308.00
2022-11-05T07:07:43.045Z,304.00
2022-11-05T07:08:43.046Z,332.00
2022-11-05T07:09:43.056Z,388.00
2022-11-05T07:10:43.036Z,424.00
2022-11-05T07:11:42.999Z,432.00
2022-11-05T07:12:43.026Z,444.00
2022-11-05T07:13:42.998Z,484.00
2022-11-05T07:14:42.960Z,540.00
2022-11-05T07:15:42.957Z,588.00
2022-11-05T07:16:42.962Z,644.00
2022-11-05T07:17:42.930Z,716.00
2022-11-05T07:18:42.915Z,760.00
2022-11-05T07:19:42.912Z,832.00
2022-11-05T07:20:42.912Z,908.00
2022-11-05T07:21:42.909Z,936.00
2022-11-05T07:22:42.875Z,900.00
2022-11-05T07:23:42.872Z,856.00
2022-11-05T07:24:42.881Z,876.00
2022-11-05T07:25:42.842Z,868.00
2022-11-05T07:26:42.828Z,732.00
2022-11-05T07:27:42.818Z,628.00
2022-11-05T07:28:42.810Z,548.00
2022-11-05T07:29:42.830Z,496.00
2022-11-05T07:30:42.792Z,480.00
2022-11-05T07:31:42.779Z,464.00
2022-11-05T07:32:42.770Z,432.00
2022-11-05T07:33:42.873Z,416.00
2022-11-05T07:34:42.742Z,384.00
2022-11-05T07:35:42.736Z,368.00
2022-11-05T07:36:42.732Z,356.00
2022-11-05T07:37:42.713Z,356.00
2022-11-05T07:38:42.723Z,372.00
2022-11-05T07:39:42.688Z,412.00
2022-11-05T07:40:42.678Z,472.00
2022-11-05T07:41:42.664Z,552.00
2022-11-05T07:42:42.677Z,616.00
2022-11-05T07:43:42.641Z,680.00
2022-11-05T07:44:42.627Z,744.00
2022-11-05T07:45:42.641Z,828.00
2022-11-05T07:46:42.608Z,820.00
2022-11-05T07:47:42.605Z,568.00
2022-11-05T07:48:42.919Z,544.00
2022-11-05T07:49:42.582Z,692.00
2022-11-05T07:50:42.573Z,864.00
2022-11-05T07:51:42.550Z,848.00
2022-11-05T07:52:42.655Z,796.00
2022-11-05T07:53:45.475Z,804.00
2022-11-05T07:54:42.521Z,772.00
2022-11-05T07:55:42.516Z,700.00
2022-11-05T07:56:42.491Z,684.00
2022-11-05T07:57:42.482Z,688.00
2022-11-05T07:58:42.472Z,708.00
2022-11-05T07:59:42.488Z,728.00
2022-11-05T08:00:42.524Z,736.00
2022-11-05T08:01:42.669Z,740.00
2022-11-05T08:02:42.676Z,764.00
2022-11-05T08:03:42.559Z,788.00
2022-11-05T08:04:42.404Z,820.00
2022-11-05T08:05:42.394Z,852.00
2022-11-05T08:06:42.384Z,940.00
2022-11-05T08:07:42.374Z,1096.00
2022-11-05T08:08:42.403Z,1360.00
2022-11-05T08:09:42.352Z,1632.00
2022-11-05T08:10:42.338Z,1512.00
2022-11-05T08:11:42.329Z,1460.00
2022-11-05T08:12:42.339Z,1400.00
2022-11-05T08:13:42.328Z,1352.00
2022-11-05T08:14:42.298Z,1428.00
2022-11-05T08:15:42.288Z,1488.00
2022-11-05T08:16:42.281Z,1560.00
2022-11-05T08:17:42.261Z,1780.00
2022-11-05T08:18:42.272Z,1784.00
2022-11-05T08:19:42.240Z,1692.00
2022-11-05T08:20:42.227Z,1660.00
2022-11-05T08:21:42.216Z,1568.00
2022-11-05T08:22:42.207Z,1632.00
2022-11-05T08:23:42.216Z,1688.00
2022-11-05T08:24:42.207Z,1680.00
2022-11-05T08:25:42.201Z,1756.00
2022-11-05T08:26:42.161Z,1732.00
2022-11-05T08:27:42.152Z,1672.00
2022-11-05T08:28:42.164Z,1640.00
2022-11-05T08:29:42.131Z,1668.00
2022-11-05T08:30:42.121Z,1752.00
2022-11-05T08:31:42.146Z,1820.00
2022-11-05T08:32:42.117Z,1876.00
2022-11-05T08:33:42.088Z,1808.00
2022-11-05T08:34:42.075Z,1872.00
2022-11-05T08:35:42.072Z,1928.00
2022-11-05T08:36:42.057Z,2016.00
2022-11-05T08:37:42.068Z,2096.00
2022-11-05T08:38:42.052Z,2108.00
2022-11-05T08:39:42.024Z,2044.00
2022-11-05T08:40:42.033Z,1980.00
2022-11-05T08:41:42.020Z,1960.00
2022-11-05T08:42:41.987Z,2108.00
2022-11-05T08:43:41.972Z,2220.00
2022-11-05T08:44:41.965Z,2244.00
2022-11-05T08:45:41.951Z,2308.00
2022-11-05T08:46:42.030Z,2388.00
2022-11-05T08:47:41.928Z,2412.00
2022-11-05T08:48:41.943Z,2412.00
2022-11-05T08:49:41.909Z,2388.00
2022-11-05T08:50:41.908Z,2424.00
2022-11-05T08:51:41.888Z,2560.00
2022-11-05T08:52:41.879Z,2512.00
2022-11-05T08:53:42.223Z,2396.00
2022-11-05T08:54:41.925Z,2220.00
2022-11-05T08:55:41.846Z,2128.00
2022-11-05T08:56:41.851Z,2428.00
2022-11-05T08:57:41.819Z,2540.00
2022-11-05T08:58:41.844Z,2516.00
2022-11-05T08:59:41.800Z,2472.00
2022-11-05T09:00:41.852Z,2424.00
2022-11-05T09:01:41.885Z,2380.00
2022-11-05T09:02:41.885Z,2336.00
2022-11-05T09:03:41.756Z,2312.00
2022-11-05T09:04:41.768Z,2340.00
2022-11-05T09:05:41.728Z,2508.00
2022-11-05T09:06:41.723Z,2740.00
2022-11-05T09:07:41.707Z,2888.00
2022-11-05T09:08:41.709Z,2968.00
2022-11-05T09:09:41.717Z,3032.00
2022-11-05T09:10:41.674Z,3104.00
2022-11-05T09:12:09.804Z,2944.00
2022-11-05T09:12:42.694Z,2592.00
2022-11-05T09:13:41.638Z,2520.00
2022-11-05T09:14:41.638Z,2408.00
2022-11-05T09:15:41.617Z,3396.00
2022-11-05T09:16:41.611Z,2884.00
2022-11-05T09:17:41.621Z,2700.00
2022-11-05T09:18:41.585Z,4016.00
2022-11-05T09:19:41.569Z,3600.00
2022-11-05T09:20:41.565Z,4180.00
2022-11-05T09:21:41.633Z,4032.00
2022-11-05T09:22:43.430Z,3952.00
2022-11-05T09:23:41.548Z,3376.00
2022-11-05T09:24:41.522Z,3256.00
2022-11-05T09:25:41.532Z,3392.00
2022-11-05T09:26:41.493Z,3396.00
2022-11-05T09:27:41.483Z,4568.00
2022-11-05T09:28:41.489Z,4728.00
2022-11-05T09:29:41.461Z,5048.00
2022-11-05T09:30:41.472Z,4496.00
2022-11-05T09:31:41.439Z,3700.00
2022-11-05T09:32:41.428Z,3584.00
2022-11-05T09:33:41.437Z,3204.00
2022-11-05T09:34:41.410Z,2876.00
2022-11-05T09:35:41.396Z,2692.00
2022-11-05T09:36:41.384Z,2836.00
2022-11-05T09:37:41.382Z,4436.00
2022-11-05T09:38:41.385Z,4500.00
2022-11-05T09:39:41.352Z,2908.00
2022-11-05T09:40:41.345Z,4480.00
2022-11-05T09:41:41.328Z,4428.00
2022-11-05T09:42:41.406Z,4532.00
2022-11-05T09:43:41.309Z,4524.00
2022-11-05T09:44:41.425Z,4644.00
2022-11-05T09:45:41.287Z,4808.00
2022-11-05T09:46:41.273Z,4772.00
2022-11-05T09:47:41.262Z,4824.00
2022-11-05T09:48:41.271Z,4812.00
2022-11-05T09:49:41.236Z,4624.00
2022-11-05T09:50:41.225Z,4844.00
2022-11-05T09:51:41.217Z,5020.00
2022-11-05T09:52:41.205Z,4948.00
2022-11-05T09:53:41.228Z,4848.00
2022-11-05T09:54:41.189Z,4864.00
2022-11-05T09:55:41.172Z,4764.00
2022-11-05T09:56:41.161Z,4900.00
2022-11-05T09:57:41.170Z,5040.00
2022-11-05T09:58:41.138Z,5056.00
2022-11-05T09:59:41.154Z,5264.00
2022-11-05T10:00:41.325Z,5320.00
2022-11-05T10:01:41.293Z,5276.00
2022-11-05T10:02:41.330Z,5360.00
2022-11-05T10:03:41.109Z,5652.00
2022-11-05T10:04:41.100Z,5996.00
2022-11-05T10:05:41.141Z,6108.00
2022-11-05T10:06:41.052Z,5912.00
2022-11-05T10:07:41.044Z,5536.00
2022-11-05T10:08:41.036Z,5864.00
2022-11-05T10:09:41.037Z,4916.00
2022-11-05T10:10:41.486Z,4984.00
2022-11-05T10:11:40.995Z,5980.00
2022-11-05T10:12:40.993Z,5912.00
2022-11-05T10:13:40.973Z,5364.00
2022-11-05T10:14:40.959Z,5532.00
2022-11-05T10:15:40.978Z,3476.00
2022-11-05T10:16:40.955Z,4704.00
2022-11-05T10:17:40.930Z,5836.00
2022-11-05T10:18:40.917Z,6472.00
2022-11-05T10:19:40.899Z,7228.00
2022-11-05T10:20:40.923Z,7568.00
2022-11-05T10:22:46.504Z,5676.00
2022-11-05T10:23:41.853Z,6000.00
2022-11-05T10:24:40.869Z,7976.00
2022-11-05T10:25:40.865Z,8192.00
2022-11-05T10:26:40.858Z,8380.00
2022-11-05T10:27:40.854Z,8092.00
2022-11-05T10:28:40.869Z,7560.00
2022-11-05T10:29:40.790Z,6672.00
2022-11-05T10:30:40.807Z,6676.00
2022-11-05T10:31:40.789Z,6352.00
2022-11-05T10:32:40.801Z,6036.00
2022-11-05T10:33:40.767Z,5676.00
2022-11-05T10:34:40.789Z,3904.00
2022-11-05T10:35:40.731Z,3164.00
2022-11-05T10:36:40.749Z,2568.00
2022-11-05T10:37:41.238Z,4584.00
2022-11-05T10:38:40.723Z,2144.00
2022-11-05T10:39:40.684Z,1792.00
2022-11-05T10:40:40.673Z,1628.00
2022-11-05T10:41:40.686Z,1564.00
2022-11-05T10:42:40.754Z,1700.00
2022-11-05T10:43:40.639Z,2592.00
2022-11-05T10:44:40.664Z,2400.00
2022-11-05T10:45:40.651Z,2548.00
2022-11-05T10:46:40.604Z,2804.00
2022-11-05T10:47:40.620Z,2576.00
2022-11-05T10:48:43.702Z,2560.00
2022-11-05T10:49:40.593Z,2456.00
2022-11-05T10:50:40.581Z,2332.00
2022-11-05T10:51:40.547Z,2240.00
2022-11-05T10:52:40.538Z,2216.00
2022-11-05T10:53:40.534Z,2208.00
2022-11-05T10:54:40.537Z,2204.00
2022-11-05T10:55:40.499Z,2172.00
2022-11-05T10:56:40.503Z,2096.00
2022-11-05T10:57:40.479Z,2032.00
2022-11-05T10:58:40.472Z,2044.00
2022-11-05T10:59:40.479Z,2116.00
2022-11-05T11:00:40.549Z,2240.00
2022-11-05T11:01:40.548Z,2424.00
2022-11-05T11:02:40.426Z,2656.00
2022-11-05T11:03:40.620Z,2928.00
2022-11-05T11:04:40.427Z,3136.00
2022-11-05T11:05:40.396Z,3200.00
2022-11-05T11:06:40.385Z,3180.00
2022-11-05T11:07:40.378Z,3184.00
2022-11-05T11:08:40.392Z,3220.00
2022-11-05T11:09:40.360Z,3304.00
2022-11-05T11:10:40.391Z,3472.00
2022-11-05T11:11:40.324Z,3588.00
2022-11-05T11:12:41.217Z,3584.00
2022-11-05T11:13:40.298Z,3444.00
2022-11-05T11:14:40.299Z,3308.00
2022-11-05T11:15:40.283Z,3132.00
2022-11-05T11:16:40.321Z,2916.00
2022-11-05T11:17:40.258Z,2724.00
2022-11-05T11:18:40.626Z,2628.00
2022-11-05T11:19:40.239Z,2380.00
2022-11-05T11:20:40.244Z,2200.00
2022-11-05T11:21:40.239Z,2040.00
2022-11-05T11:22:40.234Z,1932.00
2022-11-05T11:23:40.187Z,1880.00
2022-11-05T11:24:40.184Z,1856.00
2022-11-05T11:25:40.174Z,1860.00
2022-11-05T11:26:40.207Z,1888.00
2022-11-05T11:27:40.154Z,3212.00
2022-11-05T11:28:40.146Z,4864.00
2022-11-05T11:29:43.883Z,4860.00
2022-11-05T11:30:41.134Z,4940.00
2022-11-05T11:31:40.097Z,4920.00
2022-11-05T11:32:40.115Z,4948.00
2022-11-05T11:33:40.085Z,4952.00
2022-11-05T11:34:40.092Z,5000.00
2022-11-05T11:35:40.063Z,5064.00
2022-11-05T11:36:40.065Z,5076.00
2022-11-05T11:37:40.071Z,5080.00
2022-11-05T11:38:40.036Z,3044.00
2022-11-05T11:39:40.009Z,5248.00
2022-11-05T11:40:40.027Z,3916.00
2022-11-05T11:41:39.988Z,2380.00
2022-11-05T11:42:39.977Z,2328.00
2022-11-05T11:43:39.993Z,2376.00
2022-11-05T11:44:39.953Z,2444.00
2022-11-05T11:45:39.943Z,2536.00
2022-11-05T11:46:39.968Z,2684.00
2022-11-05T11:47:39.953Z,4988.00
2022-11-05T11:48:39.912Z,2888.00
2022-11-05T11:49:39.898Z,2976.00
2022-11-05T11:50:39.918Z,3256.00
2022-11-05T11:51:39.898Z,6204.00
2022-11-05T11:52:39.904Z,3912.00
2022-11-05T11:53:39.852Z,5800.00
2022-11-05T11:54:39.847Z,2632.00
2022-11-05T11:55:39.852Z,2324.00
2022-11-05T11:56:39.826Z,2192.00
2022-11-05T11:57:39.817Z,2100.00
2022-11-05T11:58:39.800Z,2064.00
2022-11-05T12:00:08.406Z,2144.00
2022-11-05T12:00:40.803Z,2364.00
2022-11-05T12:01:39.839Z,2568.00
2022-11-05T12:02:39.844Z,2660.00
2022-11-05T12:03:39.742Z,2764.00
2022-11-05T12:04:39.759Z,2856.00
2022-11-05T12:05:39.719Z,2756.00
2022-11-05T12:06:39.713Z,2696.00
2022-11-05T12:07:39.711Z,2736.00
2022-11-05T12:08:44.983Z,2736.00
2022-11-05T12:09:40.675Z,2768.00
2022-11-05T12:10:39.690Z,2964.00
2022-11-05T12:11:39.654Z,3376.00
2022-11-05T12:12:39.642Z,4796.00
2022-11-05T12:13:39.639Z,3800.00
2022-11-05T12:14:45.203Z,6548.00
2022-11-05T12:15:40.724Z,6344.00
2022-11-05T12:16:39.631Z,6020.00
2022-11-05T12:17:39.591Z,5752.00
2022-11-05T12:18:39.653Z,5648.00
2022-11-05T12:19:39.635Z,5544.00
2022-11-05T12:20:39.577Z,5420.00
2022-11-05T12:21:52.639Z,5344.00
2022-11-05T12:22:40.560Z,5344.00
2022-11-05T12:23:39.518Z,5384.00
2022-11-05T12:24:39.611Z,4056.00
2022-11-05T12:25:39.509Z,4116.00
2022-11-05T12:26:39.490Z,3612.00
2022-11-05T12:27:39.497Z,4068.00
2022-11-05T12:29:04.576Z,4336.00
2022-11-05T12:29:40.505Z,6784.00
2022-11-05T12:30:39.449Z,7020.00
2022-11-05T12:31:39.453Z,7784.00
2022-11-05T12:32:39.473Z,8088.00
2022-11-05T12:33:39.436Z,8112.00
2022-11-05T12:34:39.400Z,7964.00
2022-11-05T12:35:44.158Z,7808.00
2022-11-05T12:36:40.382Z,7696.00
2022-11-05T12:37:39.366Z,7636.00
2022-11-05T12:38:39.377Z,7496.00
2022-11-05T12:39:39.341Z,7116.00
2022-11-05T12:40:39.364Z,6764.00
2022-11-05T12:41:39.317Z,6536.00
2022-11-05T12:42:39.313Z,6224.00
2022-11-05T12:43:39.322Z,5980.00
2022-11-05T12:44:39.287Z,5996.00